createdAt,value
2018-08-12T00:02:09.597Z,54.33
2018-08-12T00:04:39.652Z,53.90
2018-08-12T00:10:36.426Z,56.41
2018-08-12T00:13:22.470Z,55.74
2018-08-12T00:15:52.651Z,54.74
2018-08-12T00:18:22.600Z,53.87
2018-08-12T00:20:52.645Z,54.79
2018-08-12T00:23:34.458Z,54.99
2018-08-12T00:26:05.624Z,56.36
2018-08-12T00:35:20.523Z,57.89
2018-08-12T00:37:50.577Z,57.05
2018-08-12T00:40:22.902Z,58.09
2018-08-12T00:49:11.550Z,59.33
2018-08-12T00:55:07.281Z,59.94
2018-08-12T01:01:11.595Z,58.70
2018-08-12T01:03:41.660Z,59.50
2018-08-12T01:06:11.800Z,57.85
2018-08-12T01:08:59.876Z,56.93
2018-08-12T01:11:30.547Z,56.04
2018-08-12T01:14:00.802Z,57.76
2018-08-12T01:16:31.034Z,59.22
2018-08-12T01:19:01.416Z,61.71
2018-08-12T01:21:31.721Z,59.59
2018-08-12T01:24:02.279Z,61.63
2018-08-12T01:26:57.643Z,61.66
2018-08-12T01:29:27.715Z,60.44
2018-08-12T01:31:57.892Z,62.68
2018-08-12T01:34:28.458Z,63.35
2018-08-12T01:36:59.929Z,60.23
2018-08-12T01:39:30.468Z,60.96
2018-08-12T01:42:16.459Z,62.89
2018-08-12T01:45:06.872Z,62.90
2018-08-12T01:47:37.080Z,60.35
2018-08-12T01:56:27.247Z,62.56
2018-08-12T01:59:16.664Z,61.35
2018-08-12T02:01:49.594Z,59.12
2018-08-12T02:04:21.011Z,57.98
2018-08-12T02:06:51.394Z,57.94
2018-08-12T02:09:22.813Z,60.68
2018-08-12T02:11:56.510Z,61.52
2018-08-12T02:14:30.111Z,62.33
2018-08-12T02:17:18.284Z,62.63
2018-08-12T02:19:48.460Z,61.53
2018-08-12T02:22:18.807Z,61.92
2018-08-12T02:24:52.606Z,64.76
2018-08-12T02:30:34.020Z,62.19
2018-08-12T02:33:04.608Z,61.22
2018-08-12T02:35:34.595Z,59.32
2018-08-12T02:41:40.368Z,60.00
2018-08-12T02:44:10.850Z,59.16
2018-08-12T02:46:40.979Z,59.79
2018-08-12T02:49:10.907Z,61.32
2018-08-12T02:52:00.551Z,64.39
2018-08-12T02:57:48.524Z,64.57
2018-08-12T03:03:29.464Z,63.87
2018-08-12T03:05:59.567Z,66.26
2018-08-12T03:08:29.845Z,66.41
2018-08-12T03:10:59.723Z,64.54
2018-08-12T03:13:29.713Z,65.75
2018-08-12T03:16:00.199Z,64.85
2018-08-12T03:18:31.152Z,62.20
2018-08-12T03:21:09.303Z,62.14
2018-08-12T03:23:39.214Z,59.96
2018-08-12T03:26:09.815Z,60.41
2018-08-12T03:28:39.719Z,64.03
2018-08-12T03:31:09.544Z,65.02
2018-08-12T03:33:47.916Z,66.50
2018-08-12T03:36:19.286Z,65.23
2018-08-12T03:38:50.142Z,64.63
2018-08-12T03:41:20.143Z,63.41
2018-08-12T03:46:50.106Z,63.04
2018-08-12T03:49:36.778Z,62.58
2018-08-12T03:52:07.090Z,63.20
2018-08-12T03:54:37.308Z,61.24
2018-08-12T04:00:27.931Z,63.59
2018-08-12T04:02:58.050Z,62.77
2018-08-12T04:08:32.589Z,67.96
2018-08-12T04:14:03.449Z,67.33
2018-08-12T04:17:24.516Z,66.55
2018-08-12T04:19:54.763Z,64.87
2018-08-12T04:22:53.040Z,66.62
2018-08-12T04:28:14.408Z,69.49
2018-08-12T04:34:03.893Z,68.49
2018-08-12T04:36:33.850Z,68.01
2018-08-12T04:39:03.818Z,66.39
2018-08-12T04:41:33.923Z,65.38
2018-08-12T04:44:13.008Z,68.24
2018-08-12T04:47:08.927Z,67.53
2018-08-12T04:52:49.690Z,67.02
2018-08-12T04:55:19.576Z,67.89
2018-08-12T04:57:49.717Z,69.52
2018-08-12T05:00:19.498Z,68.12
2018-08-12T05:02:50.000Z,67.39
2018-08-12T05:05:20.675Z,68.58
2018-08-12T05:07:51.183Z,67.33
2018-08-12T05:10:23.901Z,65.22
2018-08-12T05:12:53.758Z,68.56
2018-08-12T05:15:23.867Z,68.89
2018-08-12T05:17:54.156Z,69.90
2018-08-12T05:20:24.111Z,69.91
2018-08-12T05:22:58.982Z,69.84
2018-08-12T05:25:36.598Z,68.04
2018-08-12T05:28:06.856Z,70.13
2018-08-12T05:30:36.832Z,70.95
2018-08-12T05:33:08.169Z,70.66
2018-08-12T05:35:37.971Z,71.19
2018-08-12T05:38:08.435Z,71.87
2018-08-12T05:43:33.214Z,69.85
2018-08-12T05:46:04.449Z,68.45
2018-08-12T05:48:35.344Z,67.33
2018-08-12T05:51:06.622Z,67.96
2018-08-12T05:53:36.780Z,67.29
2018-08-12T05:56:07.023Z,67.34
2018-08-12T05:58:36.999Z,66.79
2018-08-12T06:04:20.269Z,65.74
2018-08-12T06:07:06.375Z,65.53
2018-08-12T06:15:48.175Z,63.24
2018-08-12T06:18:21.338Z,64.16
2018-08-12T06:20:51.299Z,63.27
2018-08-12T06:23:21.371Z,62.76
2018-08-12T06:25:51.932Z,60.73
2018-08-12T06:28:22.836Z,59.05
2018-08-12T06:30:52.994Z,58.69
2018-08-12T06:33:23.021Z,59.54
2018-08-12T06:35:53.369Z,58.73
2018-08-12T06:38:23.660Z,58.47
2018-08-12T06:40:54.134Z,57.52
2018-08-12T06:43:24.574Z,55.67
2018-08-12T06:45:54.817Z,54.99
2018-08-12T06:48:25.144Z,54.95
2018-08-12T06:50:55.731Z,53.77
2018-08-12T06:53:26.661Z,53.20
2018-08-12T06:55:56.943Z,52.98
2018-08-12T06:58:27.139Z,53.89
2018-08-12T07:00:57.459Z,53.12
2018-08-12T07:06:27.831Z,51.74
2018-08-12T07:08:58.523Z,51.86
2018-08-12T07:11:29.001Z,52.15
2018-08-12T07:13:59.640Z,53.07
2018-08-12T07:16:30.268Z,51.45
2018-08-12T07:19:00.543Z,50.95
2018-08-12T07:21:30.590Z,51.38
2018-08-12T07:24:04.759Z,51.33
2018-08-12T07:26:58.876Z,51.15
2018-08-12T08:25:58.997Z,48.25
2018-08-12T08:31:38.081Z,48.14
2018-08-12T08:37:19.407Z,46.74
2018-08-12T08:40:44.235Z,47.17
2018-08-12T08:43:14.733Z,44.78
2018-08-12T08:45:44.807Z,45.92
2018-08-12T08:48:16.471Z,45.71
2018-08-12T08:50:46.757Z,45.81
2018-08-12T08:53:29.866Z,44.95
2018-08-12T08:58:43.321Z,43.93
2018-08-12T09:01:13.225Z,43.69
2018-08-12T09:03:43.561Z,44.78
2018-08-12T09:06:13.504Z,44.18
2018-08-12T09:08:47.927Z,44.46
2018-08-12T09:14:32.155Z,44.07
2018-08-12T09:17:04.699Z,43.65
2018-08-12T09:19:34.951Z,43.46
2018-08-12T09:22:06.304Z,44.22
2018-08-12T09:24:37.094Z,43.57
2018-08-12T09:27:09.884Z,42.13
2018-08-12T09:29:40.803Z,42.43
2018-08-12T09:32:11.016Z,42.67
2018-08-12T09:34:41.167Z,43.65
2018-08-12T09:37:11.433Z,42.48
2018-08-12T09:39:41.294Z,43.57
2018-08-12T09:42:16.873Z,42.62
2018-08-12T09:44:47.778Z,42.96
2018-08-12T09:47:17.833Z,41.69
2018-08-12T09:49:47.966Z,42.52
2018-08-12T09:52:18.022Z,42.05
2018-08-12T09:54:48.308Z,41.08
2018-08-12T09:57:18.864Z,41.43
2018-08-12T09:59:48.735Z,42.17
2018-08-12T10:02:18.845Z,41.46
2018-08-12T10:04:48.946Z,41.71
2018-08-12T10:07:22.228Z,39.92
2018-08-12T10:09:52.287Z,41.31
2018-08-12T10:12:22.449Z,41.57
2018-08-12T10:14:52.280Z,40.83
2018-08-12T10:17:23.022Z,40.29
2018-08-12T10:19:53.276Z,40.43
2018-08-12T10:22:23.431Z,39.80
2018-08-12T10:24:53.670Z,39.59
2018-08-12T10:27:23.882Z,40.45
2018-08-12T10:30:07.576Z,39.26
2018-08-12T10:32:38.062Z,39.60
2018-08-12T10:35:10.183Z,39.29
2018-08-12T10:37:44.228Z,39.53
2018-08-12T10:40:36.160Z,39.43
2018-08-12T10:43:07.955Z,39.88
2018-08-12T10:45:38.428Z,38.50
2018-08-12T10:49:02.743Z,38.42
2018-08-12T10:51:32.854Z,38.01
2018-08-12T10:54:07.548Z,38.87
2018-08-12T10:56:47.864Z,38.47
2018-08-12T10:59:44.998Z,37.51
2018-08-12T11:02:15.472Z,38.70
2018-08-12T11:04:48.462Z,37.68
2018-08-12T11:10:41.478Z,37.58
2018-08-12T11:13:35.226Z,37.98
2018-08-12T11:16:06.107Z,37.85
2018-08-12T11:18:36.861Z,37.35
2018-08-12T11:21:07.624Z,36.36
2018-08-12T11:23:44.153Z,36.97
2018-08-12T11:26:15.400Z,36.47
2018-08-12T11:28:46.227Z,37.20
2018-08-12T11:31:16.562Z,37.64
2018-08-12T11:33:46.939Z,36.01
2018-08-12T11:36:17.086Z,37.49
2018-08-12T11:38:47.447Z,36.19
2018-08-12T11:41:17.581Z,37.58
2018-08-12T11:43:48.367Z,36.63
2018-08-12T11:46:18.384Z,35.61
2018-08-12T11:48:48.280Z,35.72
2018-08-12T11:51:18.132Z,35.55
2018-08-12T11:53:49.201Z,36.58
2018-08-12T11:56:19.385Z,35.44
2018-08-12T11:58:50.399Z,35.01
2018-08-12T12:01:20.254Z,35.13
2018-08-12T12:03:51.904Z,34.32
2018-08-12T12:06:22.442Z,34.31
2018-08-12T12:08:54.233Z,34.14
2018-08-12T12:11:42.777Z,34.10
2018-08-12T12:14:14.080Z,33.64
2018-08-12T12:19:54.960Z,33.07
2018-08-12T12:25:42.943Z,32.57
2018-08-12T12:28:25.062Z,32.73
2018-08-12T12:34:09.069Z,32.23
2018-08-12T12:36:44.189Z,31.73
2018-08-12T12:39:14.949Z,31.80
2018-08-12T12:41:48.629Z,31.52
2018-08-12T12:44:18.901Z,31.44
2018-08-12T12:46:48.886Z,30.87
2018-08-12T12:49:19.075Z,30.98
2018-08-12T12:51:49.561Z,31.50
2018-08-12T12:54:19.461Z,30.76
2018-08-12T12:56:49.720Z,31.73
2018-08-12T12:59:19.927Z,31.70
2018-08-12T13:01:50.369Z,31.15
2018-08-12T13:04:20.635Z,31.54
2018-08-12T13:06:51.742Z,30.78
2018-08-12T13:09:22.492Z,31.76
2018-08-12T13:11:52.588Z,29.99
2018-08-12T13:14:22.845Z,30.24
2018-08-12T13:16:53.049Z,30.82
2018-08-12T13:19:23.358Z,30.22
2018-08-12T13:21:53.441Z,30.24
2018-08-12T13:24:23.462Z,30.31
2018-08-12T13:26:53.622Z,30.90
2018-08-12T13:29:24.491Z,30.74
2018-08-12T13:31:54.644Z,28.85
2018-08-12T13:34:24.995Z,29.64
2018-08-12T13:36:55.250Z,28.33
2018-08-12T13:39:25.134Z,29.30
2018-08-12T13:41:55.509Z,29.21
2018-08-12T13:44:25.661Z,29.26
2018-08-12T13:46:55.906Z,27.99
2018-08-12T13:49:28.043Z,28.38
2018-08-12T13:51:58.391Z,27.34
2018-08-12T13:54:30.074Z,28.01
2018-08-12T13:57:00.276Z,29.02
2018-08-12T13:59:31.819Z,27.15
2018-08-12T14:02:02.029Z,27.45
2018-08-12T14:04:32.255Z,27.56
2018-08-12T14:07:02.416Z,26.94
2018-08-12T14:09:32.335Z,27.64
2018-08-12T14:12:02.263Z,27.08
2018-08-12T14:14:32.274Z,26.13
2018-08-12T14:17:02.305Z,28.46
2018-08-12T14:19:32.415Z,26.60
2018-08-12T14:22:02.266Z,27.32
2018-08-12T14:24:32.165Z,28.33
2018-08-12T14:27:02.095Z,27.85
2018-08-12T14:29:32.239Z,25.69
2018-08-12T14:32:02.334Z,26.24
2018-08-12T14:34:32.814Z,28.30
2018-08-12T14:37:02.997Z,26.69
2018-08-12T14:39:54.938Z,25.60
2018-08-12T14:42:27.141Z,26.73
2018-08-12T14:44:57.063Z,27.68
2018-08-12T14:47:28.403Z,26.64
2018-08-12T14:49:59.036Z,27.62
2018-08-12T14:52:30.087Z,27.22
2018-08-12T14:55:01.607Z,27.33
2018-08-12T14:57:32.168Z,27.25
2018-08-12T15:00:03.669Z,27.61
2018-08-12T15:02:34.848Z,26.89
2018-08-12T15:05:05.533Z,28.09
2018-08-12T15:07:37.928Z,27.38
2018-08-12T15:10:10.006Z,26.38
2018-08-12T15:12:43.542Z,25.12
2018-08-12T15:15:17.221Z,25.82
2018-08-12T15:17:52.284Z,26.29
2018-08-12T15:20:47.950Z,26.36
2018-08-12T15:23:18.015Z,25.90
2018-08-12T15:25:48.054Z,26.35
2018-08-12T15:28:18.043Z,26.34
2018-08-12T15:30:48.383Z,26.43
2018-08-12T15:33:19.301Z,25.67
2018-08-12T15:35:49.515Z,25.09
2018-08-12T15:38:19.390Z,27.59
2018-08-12T15:40:49.662Z,25.33
2018-08-12T15:43:19.745Z,25.23
2018-08-12T15:45:49.953Z,26.12
2018-08-12T15:48:19.877Z,25.91
2018-08-12T15:50:49.968Z,23.85
2018-08-12T15:53:19.810Z,25.61
2018-08-12T15:55:49.834Z,25.82
2018-08-12T15:58:19.790Z,25.25
2018-08-12T16:00:50.281Z,25.22
2018-08-12T16:03:20.151Z,26.02
2018-08-12T16:05:53.572Z,26.08
2018-08-12T16:08:23.526Z,24.14
2018-08-12T16:10:53.827Z,25.11
2018-08-12T16:13:24.472Z,25.21
2018-08-12T16:15:54.388Z,24.57
2018-08-12T16:18:24.549Z,26.08
2018-08-12T16:20:54.398Z,26.28
2018-08-12T16:23:24.226Z,24.69
2018-08-12T16:25:54.818Z,26.21
2018-08-12T16:28:25.086Z,25.30
2018-08-12T16:30:55.733Z,24.65
2018-08-12T16:33:27.961Z,26.15
2018-08-12T16:36:16.291Z,24.99
2018-08-12T16:38:46.225Z,26.83
2018-08-12T16:41:18.441Z,25.92
2018-08-12T16:43:49.473Z,24.51
2018-08-12T16:46:34.196Z,25.34
2018-08-12T16:49:04.744Z,25.55
2018-08-12T16:51:35.573Z,25.23
2018-08-12T17:00:26.125Z,23.91
2018-08-12T17:02:56.755Z,25.82
2018-08-12T17:05:26.987Z,25.72
2018-08-12T17:08:04.132Z,26.37
2018-08-12T17:10:34.898Z,25.20
2018-08-12T17:13:06.408Z,25.99
2018-08-12T17:39:47.704Z,27.21
2018-08-12T17:42:18.717Z,26.21
2018-08-12T17:44:48.910Z,26.70
2018-08-12T17:47:18.899Z,27.50
2018-08-12T17:49:48.872Z,26.97
2018-08-12T17:52:19.009Z,27.88
2018-08-12T17:54:49.216Z,27.81
2018-08-12T17:57:23.662Z,27.75
2018-08-12T18:03:04.333Z,29.38
2018-08-12T18:05:52.644Z,27.96
2018-08-12T18:14:16.995Z,30.81
2018-08-12T18:16:52.606Z,31.18
2018-08-12T18:19:24.159Z,30.97
2018-08-12T18:28:05.328Z,31.70
2018-08-12T18:30:36.021Z,32.70
2018-08-12T18:33:08.697Z,33.35
2018-08-12T18:35:39.846Z,34.49
2018-08-12T18:44:31.543Z,34.78
2018-08-12T18:50:18.450Z,34.48
2018-08-12T18:52:55.406Z,35.31
2018-08-12T18:58:35.828Z,35.22
2018-08-12T19:07:48.974Z,37.65
2018-08-12T19:10:20.659Z,38.36
2018-08-12T19:12:52.957Z,38.40
2018-08-12T19:15:23.215Z,35.96
2018-08-12T19:21:03.571Z,38.04
2018-08-12T19:23:34.177Z,38.32
2018-08-12T19:26:11.316Z,38.60
2018-08-12T19:31:53.665Z,39.67
2018-08-12T19:34:24.642Z,40.42
2018-08-12T19:36:54.959Z,38.81
2018-08-12T19:39:25.338Z,38.56
2018-08-12T19:44:46.056Z,38.65
2018-08-12T19:47:16.539Z,39.74
2018-08-12T19:49:47.498Z,40.53
2018-08-12T19:52:17.556Z,40.96
2018-08-12T19:55:06.917Z,42.08
2018-08-12T19:57:37.415Z,40.48
2018-08-12T20:00:11.683Z,40.97
2018-08-12T20:02:42.539Z,40.03
2018-08-12T20:05:13.181Z,41.09
2018-08-12T20:07:43.683Z,40.33
2018-08-12T20:10:16.013Z,41.06
2018-08-12T20:12:46.502Z,42.42
2018-08-12T20:15:16.632Z,43.73
2018-08-12T20:17:46.889Z,42.85
2018-08-12T20:20:23.923Z,43.14
2018-08-12T20:26:04.623Z,40.82
2018-08-12T20:28:47.395Z,42.28
2018-08-12T20:44:04.469Z,44.89
2018-08-12T20:59:30.671Z,45.84
2018-08-12T21:14:42.982Z,45.96
2018-08-12T21:17:24.267Z,46.08
2018-08-12T21:23:16.336Z,44.88
2018-08-12T21:38:27.751Z,46.43
2018-08-12T21:44:07.979Z,45.90
2018-08-12T21:46:39.937Z,45.61
2018-08-12T22:14:01.105Z,46.58
2018-08-12T22:16:43.552Z,46.73
2018-08-12T22:22:24.702Z,47.85
2018-08-12T22:25:23.245Z,48.31
2018-08-12T22:27:53.517Z,48.40
2018-08-12T22:36:38.025Z,48.36
2018-08-12T22:39:10.016Z,48.88
2018-08-12T22:41:40.077Z,47.54
2018-08-12T22:44:10.005Z,48.83
2018-08-12T22:46:41.278Z,47.12
2018-08-12T22:49:11.444Z,47.18
2018-08-12T22:51:41.583Z,48.27
2018-08-12T22:57:44.995Z,47.31
2018-08-12T23:00:19.800Z,46.64
2018-08-12T23:02:50.841Z,49.11
2018-08-12T23:08:31.739Z,51.63
2018-08-12T23:14:14.438Z,50.44
2018-08-12T23:16:58.183Z,49.30
2018-08-12T23:19:28.491Z,50.52
2018-08-12T23:22:16.299Z,50.01
2018-08-12T23:24:46.421Z,49.27
2018-08-12T23:27:23.128Z,49.64
2018-08-12T23:29:53.242Z,51.33
2018-08-12T23:32:23.244Z,51.05
2018-08-12T23:34:53.257Z,49.44
2018-08-12T23:37:23.195Z,47.91
2018-08-12T23:39:53.371Z,50.52
2018-08-12T23:42:23.406Z,52.18
2018-08-12T23:44:53.422Z,53.34
2018-08-12T23:47:33.580Z,51.46
2018-08-12T23:52:58.584Z,49.45
2018-08-12T23:55:28.553Z,48.56
2018-08-12T23:57:58.535Z,49.54
